Etusivu
METAR-TAF:

METAR-TAF

Lentoasemat :

Council Bluffs, Iowa, Yhdysvallat

Leveyspiiri: 41-16N, Pituuspiiri: 095-46W, korkeus merenpinnasta: 382 m

Tämänhetkinen sää

Tämä raportti tehtiin 13 minuuttia sitten, kello 18.15 UTC
Tuuli 12 kn etelästä puuskistuen 19 kn:hen
Lämpötila -6°C
Kosteus 53%
Ilmanpaine 1029 hPa
Näkyvyys: 16.1 km
selkeää

METAR: KCBF 121815Z AUTO 18012G19KT 10SM CLR M06/M14 A3040 RMK AO2

Aika: 12:28 (18:28 UTC)


TAF: puuttuu

Säähavainnot ja -ennusteet yli 4000 lentoasemalta (METAR- ja TAF-raportit).

Käytössä olevat sääasemat on merkitty karttaan keltaisilla ja punaisilla pisteillä.

Aseta hiiri pisteen päälle nähdäksesi sääaseman nimen.

Klikkaa sitten nähdäksesi säähavainnot ja -ennusteet.

Kartan vaihtaminen: klikkaa mustalla rastilla varustettuja vihreitä pisteitä, niin voit zoomata sisään; viivalla varustettua vihreää pistettä, niin voit zoomata ulos tai vihreitä nuolia, niin pääset viereisille kartoille.


METAR-TAF: